sensor_id;sensor_type;location;lat;lon;timestamp;pressure;altitude;pressure_sealevel;temperature;humidity
7760;BME280;3924;48.830;9.262;2023-03-03T00:01:13;98822.19;;;3.31;71.86
7760;BME280;3924;48.830;9.262;2023-03-03T00:03:40;98823.25;;;3.30;71.78
7760;BME280;3924;48.830;9.262;2023-03-03T00:06:10;98827.19;;;3.27;71.96
7760;BME280;3924;48.830;9.262;2023-03-03T00:08:38;98836.28;;;3.26;71.94
7760;BME280;3924;48.830;9.262;2023-03-03T00:11:04;98821.53;;;3.24;71.84
7760;BME280;3924;48.830;9.262;2023-03-03T00:16:28;98823.84;;;3.20;71.93
7760;BME280;3924;48.830;9.262;2023-03-03T00:18:56;98825.41;;;3.16;72.01
7760;BME280;3924;48.830;9.262;2023-03-03T00:21:30;98833.63;;;3.15;72.14
7760;BME280;3924;48.830;9.262;2023-03-03T00:24:17;98832.03;;;3.14;72.12
7760;BME280;3924;48.830;9.262;2023-03-03T00:26:49;98830.41;;;3.13;72.39
7760;BME280;3924;48.830;9.262;2023-03-03T00:31:51;98829.22;;;3.09;72.73
7760;BME280;3924;48.830;9.262;2023-03-03T00:34:23;98832.16;;;3.07;72.45
7760;BME280;3924;48.830;9.262;2023-03-03T00:36:53;98834.03;;;3.07;72.37
7760;BME280;3924;48.830;9.262;2023-03-03T00:39:25;98827.59;;;3.08;72.62
7760;BME280;3924;48.830;9.262;2023-03-03T00:41:53;98829.16;;;3.04;72.53
7760;BME280;3924;48.830;9.262;2023-03-03T00:47:29;98829.03;;;2.98;72.56
7760;BME280;3924;48.830;9.262;2023-03-03T00:52:35;98827.88;;;2.94;72.93
7760;BME280;3924;48.830;9.262;2023-03-03T00:55:03;98823.00;;;2.91;72.95
7760;BME280;3924;48.830;9.262;2023-03-03T00:57:30;98820.22;;;2.86;72.78
7760;BME280;3924;48.830;9.262;2023-03-03T00:59:56;98821.75;;;2.82;73.01
7760;BME280;3924;48.830;9.262;2023-03-03T01:02:22;98823.25;;;2.78;73.30
7760;BME280;3924;48.830;9.262;2023-03-03T01:04:51;98821.88;;;2.76;73.11
7760;BME280;3924;48.830;9.262;2023-03-03T01:07:18;98820.69;;;2.71;73.33
7760;BME280;3924;48.830;9.262;2023-03-03T01:09:44;98819.66;;;2.72;73.42
7760;BME280;3924;48.830;9.262;2023-03-03T01:12:11;98816.72;;;2.74;73.38
7760;BME280;3924;48.830;9.262;2023-03-03T01:14:38;98821.28;;;2.73;73.55
7760;BME280;3924;48.830;9.262;2023-03-03T01:17:05;98815.22;;;2.66;73.51
7760;BME280;3924;48.830;9.262;2023-03-03T01:19:32;98817.09;;;2.66;73.55
7760;BME280;3924;48.830;9.262;2023-03-03T01:21:58;98818.97;;;2.65;73.58
7760;BME280;3924;48.830;9.262;2023-03-03T01:24:25;98821.41;;;2.67;73.79
7760;BME280;3924;48.830;9.262;2023-03-03T01:26:51;98815.47;;;2.65;73.54
7760;BME280;3924;48.830;9.262;2023-03-03T01:29:17;98823.75;;;2.63;73.51
7760;BME280;3924;48.830;9.262;2023-03-03T01:31:44;98820.94;;;2.58;73.71
7760;BME280;3924;48.830;9.262;2023-03-03T01:34:10;98827.84;;;2.54;73.85
7760;BME280;3924;48.830;9.262;2023-03-03T01:36:37;98815.16;;;2.50;74.05
7760;BME280;3924;48.830;9.262;2023-03-03T01:39:03;98829.56;;;2.49;73.99
7760;BME280;3924;48.830;9.262;2023-03-03T01:41:30;98818.88;;;2.49;73.94
7760;BME280;3924;48.830;9.262;2023-03-03T01:44:00;98822.81;;;2.46;73.88
7760;BME280;3924;48.830;9.262;2023-03-03T01:46:53;98822.25;;;2.44;73.97
7760;BME280;3924;48.830;9.262;2023-03-03T01:49:35;98817.38;;;2.41;74.29
7760;BME280;3924;48.830;9.262;2023-03-03T01:52:16;98819.44;;;2.39;74.34
7760;BME280;3924;48.830;9.262;2023-03-03T01:54:51;98810.03;;;2.36;74.26
7760;BME280;3924;48.830;9.262;2023-03-03T01:57:29;98813.75;;;2.35;74.10
7760;BME280;3924;48.830;9.262;2023-03-03T01:59:59;98807.81;;;2.33;74.15
7760;BME280;3924;48.830;9.262;2023-03-03T02:02:28;98808.28;;;2.30;74.39
7760;BME280;3924;48.830;9.262;2023-03-03T02:04:55;98798.63;;;2.29;74.26
7760;BME280;3924;48.830;9.262;2023-03-03T02:07:22;98805.47;;;2.25;74.29
7760;BME280;3924;48.830;9.262;2023-03-03T02:10:03;98797.13;;;2.22;74.62
7760;BME280;3924;48.830;9.262;2023-03-03T02:12:37;98798.38;;;2.19;74.55
7760;BME280;3924;48.830;9.262;2023-03-03T02:15:18;98788.16;;;2.16;74.52
7760;BME280;3924;48.830;9.262;2023-03-03T02:17:47;98792.34;;;2.12;74.61
7760;BME280;3924;48.830;9.262;2023-03-03T02:23:22;98787.72;;;2.07;74.58
7760;BME280;3924;48.830;9.262;2023-03-03T02:26:08;98793.25;;;2.06;75.02
7760;BME280;3924;48.830;9.262;2023-03-03T02:28:36;98795.34;;;2.04;74.68
7760;BME280;3924;48.830;9.262;2023-03-03T02:31:06;98791.31;;;2.01;74.82
7760;BME280;3924;48.830;9.262;2023-03-03T02:33:32;98794.41;;;1.98;74.96
7760;BME280;3924;48.830;9.262;2023-03-03T02:35:59;98793.03;;;1.96;75.06
7760;BME280;3924;48.830;9.262;2023-03-03T02:38:38;98785.81;;;1.96;74.99
7760;BME280;3924;48.830;9.262;2023-03-03T02:41:41;98801.06;;;1.96;75.10
7760;BME280;3924;48.830;9.262;2023-03-03T02:44:16;98797.19;;;1.91;74.86
7760;BME280;3924;48.830;9.262;2023-03-03T02:46:44;98793.72;;;1.91;75.23
7760;BME280;3924;48.830;9.262;2023-03-03T02:49:14;98795.56;;;1.90;75.13
7760;BME280;3924;48.830;9.262;2023-03-03T02:51:41;98804.19;;;1.92;75.19
7760;BME280;3924;48.830;9.262;2023-03-03T02:54:09;98809.06;;;1.96;75.16
7760;BME280;3924;48.830;9.262;2023-03-03T02:56:36;98810.94;;;1.95;74.98
7760;BME280;3924;48.830;9.262;2023-03-03T02:59:04;98818.94;;;1.95;75.14
7760;BME280;3924;48.830;9.262;2023-03-03T03:01:30;98810.25;;;2.00;74.96
7760;BME280;3924;48.830;9.262;2023-03-03T03:04:08;98809.78;;;2.03;75.11
7760;BME280;3924;48.830;9.262;2023-03-03T03:06:35;98808.28;;;2.07;74.86
7760;BME280;3924;48.830;9.262;2023-03-03T03:09:02;98806.19;;;2.09;75.07
7760;BME280;3924;48.830;9.262;2023-03-03T03:11:29;98806.19;;;2.09;74.96
7760;BME280;3924;48.830;9.262;2023-03-03T03:13:55;98807.22;;;2.08;74.63
7760;BME280;3924;48.830;9.262;2023-03-03T03:16:22;98800.94;;;2.02;74.98
7760;BME280;3924;48.830;9.262;2023-03-03T03:18:48;98806.06;;;2.04;75.04
7760;BME280;3924;48.830;9.262;2023-03-03T03:21:18;98812.22;;;2.04;74.98
7760;BME280;3924;48.830;9.262;2023-03-03T03:23:44;98809.78;;;2.03;75.06
7760;BME280;3924;48.830;9.262;2023-03-03T03:26:11;98809.78;;;2.03;74.94
7760;BME280;3924;48.830;9.262;2023-03-03T03:28:38;98814.66;;;2.06;74.99
7760;BME280;3924;48.830;9.262;2023-03-03T03:31:06;98815.25;;;2.08;75.03
7760;BME280;3924;48.830;9.262;2023-03-03T03:33:33;98809.19;;;2.12;75.05
7760;BME280;3924;48.830;9.262;2023-03-03T03:36:00;98804.78;;;2.18;74.89
7760;BME280;3924;48.830;9.262;2023-03-03T03:38:27;98811.31;;;2.22;75.04
7760;BME280;3924;48.830;9.262;2023-03-03T03:40:55;98807.59;;;2.23;74.77
7760;BME280;3924;48.830;9.262;2023-03-03T03:43:21;98812.47;;;2.26;74.89
7760;BME280;3924;48.830;9.262;2023-03-03T03:45:48;98819.47;;;2.27;74.67
7760;BME280;3924;48.830;9.262;2023-03-03T03:48:15;98812.25;;;2.28;74.80
7760;BME280;3924;48.830;9.262;2023-03-03T03:50:42;98809.78;;;2.26;74.77
7760;BME280;3924;48.830;9.262;2023-03-03T03:53:08;98814.56;;;2.24;75.02
7760;BME280;3924;48.830;9.262;2023-03-03T03:55:34;98807.59;;;2.23;74.85
7760;BME280;3924;48.830;9.262;2023-03-03T03:58:01;98801.06;;;2.19;75.06
7760;BME280;3924;48.830;9.262;2023-03-03T04:00:28;98800.47;;;2.17;75.02
7760;BME280;3924;48.830;9.262;2023-03-03T04:02:54;98799.44;;;2.18;75.26
7760;BME280;3924;48.830;9.262;2023-03-03T04:05:21;98809.22;;;2.24;75.13
7760;BME280;3924;48.830;9.262;2023-03-03T04:07:47;98803.97;;;2.29;75.19
7760;BME280;3924;48.830;9.262;2023-03-03T04:10:14;98809.47;;;2.34;75.17
7760;BME280;3924;48.830;9.262;2023-03-03T04:12:40;98811.41;;;2.39;75.06
7760;BME280;3924;48.830;9.262;2023-03-03T04:15:09;98809.09;;;2.42;75.06
7760;BME280;3924;48.830;9.262;2023-03-03T04:17:36;98809.56;;;2.39;74.70
7760;BME280;3924;48.830;9.262;2023-03-03T04:20:03;98807.34;;;2.36;74.96
7760;BME280;3924;48.830;9.262;2023-03-03T04:22:31;98812.47;;;2.38;74.77
7760;BME280;3924;48.830;9.262;2023-03-03T04:25:02;98813.28;;;2.38;75.00
7760;BME280;3924;48.830;9.262;2023-03-03T04:27:34;98823.53;;;2.41;75.02
7760;BME280;3924;48.830;9.262;2023-03-03T04:30:02;98827.03;;;2.42;75.01
7760;BME280;3924;48.830;9.262;2023-03-03T04:32:30;98832.59;;;2.40;75.04
7760;BME280;3924;48.830;9.262;2023-03-03T04:34:59;98824.59;;;2.40;75.04
7760;BME280;3924;48.830;9.262;2023-03-03T04:37:34;98827.03;;;2.42;75.00
7760;BME280;3924;48.830;9.262;2023-03-03T04:40:02;98828.88;;;2.41;75.06
7760;BME280;3924;48.830;9.262;2023-03-03T04:42:29;98826.78;;;2.43;75.04
7760;BME280;3924;48.830;9.262;2023-03-03T04:44:56;98828.97;;;2.46;75.06
7760;BME280;3924;48.830;9.262;2023-03-03T04:47:22;98839.47;;;2.48;75.02
7760;BME280;3924;48.830;9.262;2023-03-03T04:49:49;98836.78;;;2.48;75.14
7760;BME280;3924;48.830;9.262;2023-03-03T04:52:15;98846.44;;;2.49;75.07
7760;BME280;3924;48.830;9.262;2023-03-03T04:54:42;98846.69;;;2.47;74.94
7760;BME280;3924;48.830;9.262;2023-03-03T04:57:08;98843.41;;;2.45;75.00
7760;BME280;3924;48.830;9.262;2023-03-03T04:59:35;98848.31;;;2.49;75.16
7760;BME280;3924;48.830;9.262;2023-03-03T05:02:02;98843.53;;;2.51;74.88
7760;BME280;3924;48.830;9.262;2023-03-03T05:04:31;98841.91;;;2.50;75.08
7760;BME280;3924;48.830;9.262;2023-03-03T05:06:58;98852.38;;;2.51;75.61
7760;BME280;3924;48.830;9.262;2023-03-03T05:09:24;98847.38;;;2.55;75.01
7760;BME280;3924;48.830;9.262;2023-03-03T05:11:51;98843.03;;;2.54;75.02
7760;BME280;3924;48.830;9.262;2023-03-03T05:14:17;98846.78;;;2.53;75.01
7760;BME280;3924;48.830;9.262;2023-03-03T05:16:44;98836.06;;;2.53;75.38
7760;BME280;3924;48.830;9.262;2023-03-03T05:19:11;98842.59;;;2.57;75.21
7760;BME280;3924;48.830;9.262;2023-03-03T05:21:37;98838.88;;;2.58;75.33
7760;BME280;3924;48.830;9.262;2023-03-03T05:24:09;98849.13;;;2.61;75.10
7760;BME280;3924;48.830;9.262;2023-03-03T05:26:36;98844.59;;;2.61;75.07
7760;BME280;3924;48.830;9.262;2023-03-03T05:29:03;98845.41;;;2.62;75.11
7760;BME280;3924;48.830;9.262;2023-03-03T05:31:29;98856.09;;;2.62;75.05
7760;BME280;3924;48.830;9.262;2023-03-03T05:33:56;98848.88;;;2.62;75.17
7760;BME280;3924;48.830;9.262;2023-03-03T05:36:22;98856.91;;;2.62;75.28
7760;BME280;3924;48.830;9.262;2023-03-03T05:38:49;98851.31;;;2.64;75.09
7760;BME280;3924;48.830;9.262;2023-03-03T05:41:15;98860.16;;;2.64;75.34
7760;BME280;3924;48.830;9.262;2023-03-03T05:43:42;98863.66;;;2.65;75.36
7760;BME280;3924;48.830;9.262;2023-03-03T05:46:09;98868.19;;;2.64;75.15
7760;BME280;3924;48.830;9.262;2023-03-03T05:48:36;98866.31;;;2.65;75.24
7760;BME280;3924;48.830;9.262;2023-03-03T05:51:02;98865.75;;;2.63;75.28
7760;BME280;3924;48.830;9.262;2023-03-03T05:53:29;98867.25;;;2.59;75.45
7760;BME280;3924;48.830;9.262;2023-03-03T05:55:55;98873.09;;;2.56;75.45
7760;BME280;3924;48.830;9.262;2023-03-03T05:58:22;98873.44;;;2.47;74.98
7760;BME280;3924;48.830;9.262;2023-03-03T06:00:49;98879.22;;;2.44;75.16
7760;BME280;3924;48.830;9.262;2023-03-03T06:03:15;98874.34;;;2.41;75.18
7760;BME280;3924;48.830;9.262;2023-03-03T06:05:42;98880.75;;;2.40;75.38
7760;BME280;3924;48.830;9.262;2023-03-03T06:08:08;98879.09;;;2.39;75.07
7760;BME280;3924;48.830;9.262;2023-03-03T06:10:35;98879.59;;;2.36;75.29
7760;BME280;3924;48.830;9.262;2023-03-03T06:13:02;98882.13;;;2.31;75.18
7760;BME280;3924;48.830;9.262;2023-03-03T06:15:28;98882.13;;;2.31;75.52
7760;BME280;3924;48.830;9.262;2023-03-03T06:17:55;98883.75;;;2.32;75.44
7760;BME280;3924;48.830;9.262;2023-03-03T06:20:21;98885.63;;;2.32;75.37
7760;BME280;3924;48.830;9.262;2023-03-03T06:22:47;98873.06;;;2.32;75.60
7760;BME280;3924;48.830;9.262;2023-03-03T06:25:14;98891.91;;;2.37;75.71
7760;BME280;3924;48.830;9.262;2023-03-03T06:27:41;98896.81;;;2.40;75.35
7760;BME280;3924;48.830;9.262;2023-03-03T06:30:08;98902.59;;;2.37;75.31
7760;BME280;3924;48.830;9.262;2023-03-03T06:32:34;98899.94;;;2.37;75.51
7760;BME280;3924;48.830;9.262;2023-03-03T06:35:01;98911.69;;;2.36;75.71
7760;BME280;3924;48.830;9.262;2023-03-03T06:37:27;98907.38;;;2.35;75.55
7760;BME280;3924;48.830;9.262;2023-03-03T06:39:53;98907.63;;;2.34;75.32
7760;BME280;3924;48.830;9.262;2023-03-03T06:42:20;98910.28;;;2.34;75.61
7760;BME280;3924;48.830;9.262;2023-03-03T06:44:46;98910.97;;;2.29;75.38
7760;BME280;3924;48.830;9.262;2023-03-03T06:47:15;98912.59;;;2.30;75.56
7760;BME280;3924;48.830;9.262;2023-03-03T06:49:42;98920.84;;;2.29;75.49
7760;BME280;3924;48.830;9.262;2023-03-03T06:52:11;98925.63;;;2.27;75.70
7760;BME280;3924;48.830;9.262;2023-03-03T06:54:39;98920.84;;;2.29;75.24
7760;BME280;3924;48.830;9.262;2023-03-03T06:57:30;98930.41;;;2.36;75.31
7760;BME280;3924;48.830;9.262;2023-03-03T07:00:20;98930.06;;;2.44;75.66
7760;BME280;3924;48.830;9.262;2023-03-03T07:03:07;98924.28;;;2.47;75.19
7760;BME280;3924;48.830;9.262;2023-03-03T07:05:37;98930.06;;;2.44;75.34
7760;BME280;3924;48.830;9.262;2023-03-03T07:08:15;98934.84;;;2.42;75.19
7760;BME280;3924;48.830;9.262;2023-03-03T07:10:43;98930.16;;;2.38;75.13
7760;BME280;3924;48.830;9.262;2023-03-03T07:13:28;98939.63;;;2.40;75.18
7760;BME280;3924;48.830;9.262;2023-03-03T07:15:59;98935.88;;;2.41;75.09
7760;BME280;3924;48.830;9.262;2023-03-03T07:18:39;98938.66;;;2.46;75.23
7760;BME280;3924;48.830;9.262;2023-03-03T07:21:34;98938.56;;;2.53;74.88
7760;BME280;3924;48.830;9.262;2023-03-03T07:26:41;98938.00;;;2.63;74.94
7760;BME280;3924;48.830;9.262;2023-03-03T07:29:25;98947.88;;;2.74;74.86
7760;BME280;3924;48.830;9.262;2023-03-03T07:31:54;98948.03;;;2.79;74.75
7760;BME280;3924;48.830;9.262;2023-03-03T07:34:35;98943.84;;;2.83;74.47
7760;BME280;3924;48.830;9.262;2023-03-03T07:37:10;98948.28;;;2.89;74.72
7760;BME280;3924;48.830;9.262;2023-03-03T07:39:43;98947.22;;;2.90;74.33
7760;BME280;3924;48.830;9.262;2023-03-03T07:42:25;98943.13;;;2.88;74.33
7760;BME280;3924;48.830;9.262;2023-03-03T07:44:57;98945.34;;;2.91;74.27
7760;BME280;3924;48.830;9.262;2023-03-03T07:47:29;98939.31;;;2.95;74.35
7760;BME280;3924;48.830;9.262;2023-03-03T07:50:00;98945.13;;;3.04;74.10
7760;BME280;3924;48.830;9.262;2023-03-03T07:52:42;98949.31;;;3.12;74.20
7760;BME280;3924;48.830;9.262;2023-03-03T07:55:35;98949.41;;;3.17;74.11
7760;BME280;3924;48.830;9.262;2023-03-03T07:58:23;98955.22;;;3.14;73.79
7760;BME280;3924;48.830;9.262;2023-03-03T08:01:24;98968.28;;;3.10;74.02
7760;BME280;3924;48.830;9.262;2023-03-03T08:03:55;98965.63;;;3.10;73.64
7760;BME280;3924;48.830;9.262;2023-03-03T08:09:20;98969.78;;;3.18;73.59
7760;BME280;3924;48.830;9.262;2023-03-03T08:14:34;98969.78;;;3.18;73.63
7760;BME280;3924;48.830;9.262;2023-03-03T08:17:01;98965.56;;;3.22;73.50
7760;BME280;3924;48.830;9.262;2023-03-03T08:19:29;98966.19;;;3.24;73.37
7760;BME280;3924;48.830;9.262;2023-03-03T08:22:16;98965.13;;;3.37;73.31
7760;BME280;3924;48.830;9.262;2023-03-03T08:24:43;98973.38;;;3.35;73.05
7760;BME280;3924;48.830;9.262;2023-03-03T08:27:10;98963.47;;;3.36;73.25
7760;BME280;3924;48.830;9.262;2023-03-03T08:29:37;98957.97;;;3.42;72.99
7760;BME280;3924;48.830;9.262;2023-03-03T08:32:04;98968.44;;;3.55;72.80
7760;BME280;3924;48.830;9.262;2023-03-03T08:34:30;98968.91;;;3.64;72.56
7760;BME280;3924;48.830;9.262;2023-03-03T08:36:57;98964.00;;;3.61;72.67
7760;BME280;3924;48.830;9.262;2023-03-03T08:39:23;98959.44;;;3.73;72.58
7760;BME280;3924;48.830;9.262;2023-03-03T08:41:50;98962.34;;;3.72;72.47
7760;BME280;3924;48.830;9.262;2023-03-03T08:44:16;98960.72;;;3.71;72.62
7760;BME280;3924;48.830;9.262;2023-03-03T08:46:44;98963.03;;;3.79;72.84
7760;BME280;3924;48.830;9.262;2023-03-03T08:49:11;98965.72;;;3.79;72.26
7760;BME280;3924;48.830;9.262;2023-03-03T08:51:38;98969.31;;;3.84;72.09
7760;BME280;3924;48.830;9.262;2023-03-03T08:54:05;98975.34;;;3.92;72.02
7760;BME280;3924;48.830;9.262;2023-03-03T08:56:31;98980.47;;;3.93;72.24
7760;BME280;3924;48.830;9.262;2023-03-03T08:58:58;98980.47;;;3.93;72.34
7760;BME280;3924;48.830;9.262;2023-03-03T09:01:29;98987.78;;;3.98;71.76
7760;BME280;3924;48.830;9.262;2023-03-03T09:03:56;98991.50;;;4.08;71.83
7760;BME280;3924;48.830;9.262;2023-03-03T09:06:23;98991.75;;;4.24;71.65
7760;BME280;3924;48.830;9.262;2023-03-03T09:08:50;98985.94;;;4.27;71.27
7760;BME280;3924;48.830;9.262;2023-03-03T09:11:23;98987.22;;;4.24;71.32
7760;BME280;3924;48.830;9.262;2023-03-03T09:14:16;98993.78;;;4.17;71.22
7760;BME280;3924;48.830;9.262;2023-03-03T09:16:48;98996.47;;;4.17;71.36
7760;BME280;3924;48.830;9.262;2023-03-03T09:19:23;99004.63;;;4.22;71.58
7760;BME280;3924;48.830;9.262;2023-03-03T09:21:52;99005.63;;;4.32;71.29
7760;BME280;3924;48.830;9.262;2023-03-03T09:24:27;99003.13;;;4.43;71.01
7760;BME280;3924;48.830;9.262;2023-03-03T09:26:55;99001.75;;;4.57;70.83
7760;BME280;3924;48.830;9.262;2023-03-03T09:29:29;98997.94;;;4.70;70.72
7760;BME280;3924;48.830;9.262;2023-03-03T09:32:05;99007.41;;;4.89;70.59
7760;BME280;3924;48.830;9.262;2023-03-03T09:34:41;98999.56;;;5.04;70.11
7760;BME280;3924;48.830;9.262;2023-03-03T09:37:19;99007.28;;;5.17;69.76
7760;BME280;3924;48.830;9.262;2023-03-03T09:39:49;98997.91;;;5.37;69.81
7760;BME280;3924;48.830;9.262;2023-03-03T09:45:17;98998.84;;;5.69;69.11
7760;BME280;3924;48.830;9.262;2023-03-03T10:01:29;99002.72;;;5.95;68.20
7760;BME280;3924;48.830;9.262;2023-03-03T10:04:23;98999.97;;;6.39;67.46
7760;BME280;3924;48.830;9.262;2023-03-03T10:09:58;98995.63;;;6.65;67.17
7760;BME280;3924;48.830;9.262;2023-03-03T10:15:41;98992.72;;;6.40;67.29
7760;BME280;3924;48.830;9.262;2023-03-03T10:18:31;98999.41;;;6.37;67.20
7760;BME280;3924;48.830;9.262;2023-03-03T10:35:38;99007.56;;;6.74;66.53
7760;BME280;3924;48.830;9.262;2023-03-03T10:47:33;98998.97;;;6.77;66.00
7760;BME280;3924;48.830;9.262;2023-03-03T10:52:45;98995.19;;;6.73;66.05
7760;BME280;3924;48.830;9.262;2023-03-03T11:04:47;98984.63;;;7.04;65.15
7760;BME280;3924;48.830;9.262;2023-03-03T11:12:48;98996.16;;;6.99;64.91
7760;BME280;3924;48.830;9.262;2023-03-03T11:23:35;99011.28;;;7.37;63.85
7760;BME280;3924;48.830;9.262;2023-03-03T11:26:08;99012.13;;;7.43;63.81
7760;BME280;3924;48.830;9.262;2023-03-03T11:31:29;99012.13;;;7.43;63.34
7760;BME280;3924;48.830;9.262;2023-03-03T11:37:07;99002.97;;;7.44;63.24
7760;BME280;3924;48.830;9.262;2023-03-03T11:39:35;98996.97;;;7.37;63.45
7760;BME280;3924;48.830;9.262;2023-03-03T11:44:48;98991.41;;;7.54;62.98
7760;BME280;3924;48.830;9.262;2023-03-03T11:47:29;98990.66;;;7.68;62.54
7760;BME280;3924;48.830;9.262;2023-03-03T11:50:01;98984.50;;;7.78;62.23
7760;BME280;3924;48.830;9.262;2023-03-03T11:55:25;98980.47;;;7.81;62.60
7760;BME280;3924;48.830;9.262;2023-03-03T12:00:34;98971.03;;;7.88;61.62
7760;BME280;3924;48.830;9.262;2023-03-03T12:03:25;98968.72;;;8.17;62.02
7760;BME280;3924;48.830;9.262;2023-03-03T12:11:20;98948.03;;;9.74;57.97
7760;BME280;3924;48.830;9.262;2023-03-03T12:30:46;98940.38;;;10.46;57.08
7760;BME280;3924;48.830;9.262;2023-03-03T12:38:49;98937.28;;;10.19;56.65
7760;BME280;3924;48.830;9.262;2023-03-03T12:41:26;98939.19;;;10.23;57.16
7760;BME280;3924;48.830;9.262;2023-03-03T12:44:07;98928.41;;;10.52;55.71
7760;BME280;3924;48.830;9.262;2023-03-03T12:50:09;98933.00;;;10.57;55.66
7760;BME280;3924;48.830;9.262;2023-03-03T12:52:45;98927.72;;;10.71;55.56
7760;BME280;3924;48.830;9.262;2023-03-03T12:58:05;98930.16;;;10.72;54.77
7760;BME280;3924;48.830;9.262;2023-03-03T13:06:29;98923.41;;;10.99;54.17
7760;BME280;3924;48.830;9.262;2023-03-03T13:12:07;98934.81;;;10.61;54.76
7760;BME280;3924;48.830;9.262;2023-03-03T13:14:55;98925.97;;;10.85;54.83
7760;BME280;3924;48.830;9.262;2023-03-03T13:17:26;98922.00;;;11.01;54.28
7760;BME280;3924;48.830;9.262;2023-03-03T13:19:57;98924.13;;;11.04;53.72
7760;BME280;3924;48.830;9.262;2023-03-03T13:27:55;98926.38;;;10.97;53.05
7760;BME280;3924;48.830;9.262;2023-03-03T13:30:26;98920.59;;;10.80;53.70
7760;BME280;3924;48.830;9.262;2023-03-03T13:32:59;98915.69;;;10.82;53.97
7760;BME280;3924;48.830;9.262;2023-03-03T13:35:49;98915.00;;;10.95;53.26
7760;BME280;3924;48.830;9.262;2023-03-03T13:38:30;98912.09;;;11.15;52.46
7760;BME280;3924;48.830;9.262;2023-03-03T13:43:31;98902.00;;;11.21;51.90
7760;BME280;3924;48.830;9.262;2023-03-03T13:46:16;98906.44;;;11.12;52.70
7760;BME280;3924;48.830;9.262;2023-03-03T13:49:07;98901.25;;;11.15;52.94
7760;BME280;3924;48.830;9.262;2023-03-03T13:51:46;98914.28;;;11.13;52.44
7760;BME280;3924;48.830;9.262;2023-03-03T13:54:27;98906.19;;;11.08;52.57
7760;BME280;3924;48.830;9.262;2023-03-03T14:04:53;98894.06;;;11.01;51.86
7760;BME280;3924;48.830;9.262;2023-03-03T14:07:29;98890.09;;;10.93;52.64
7760;BME280;3924;48.830;9.262;2023-03-03T14:10:12;98884.13;;;10.91;52.16
7760;BME280;3924;48.830;9.262;2023-03-03T14:12:50;98881.94;;;10.93;52.37
7760;BME280;3924;48.830;9.262;2023-03-03T14:15:30;98882.84;;;10.83;51.67
7760;BME280;3924;48.830;9.262;2023-03-03T14:20:47;98882.75;;;10.93;51.08
7760;BME280;3924;48.830;9.262;2023-03-03T14:28:41;98877.41;;;10.83;51.86
7760;BME280;3924;48.830;9.262;2023-03-03T14:31:25;98868.44;;;10.88;51.29
7760;BME280;3924;48.830;9.262;2023-03-03T14:33:59;98881.69;;;10.89;52.15
7760;BME280;3924;48.830;9.262;2023-03-03T14:36:31;98878.19;;;10.89;51.31
7760;BME280;3924;48.830;9.262;2023-03-03T14:38:58;98878.69;;;10.91;50.95
7760;BME280;3924;48.830;9.262;2023-03-03T14:41:39;98871.84;;;10.99;50.68
7760;BME280;3924;48.830;9.262;2023-03-03T14:44:32;98872.94;;;10.98;51.26
7760;BME280;3924;48.830;9.262;2023-03-03T14:49:38;98876.72;;;10.73;51.60
7760;BME280;3924;48.830;9.262;2023-03-03T14:52:10;98874.03;;;10.67;51.29
7760;BME280;3924;48.830;9.262;2023-03-03T14:54:46;98873.28;;;10.62;52.12
7760;BME280;3924;48.830;9.262;2023-03-03T15:00:25;98881.19;;;10.58;51.86
7760;BME280;3924;48.830;9.262;2023-03-03T15:05:34;98859.97;;;10.65;51.32
7760;BME280;3924;48.830;9.262;2023-03-03T15:10:35;98862.13;;;10.63;51.72
7760;BME280;3924;48.830;9.262;2023-03-03T15:15:59;98859.78;;;10.57;51.00
7760;BME280;3924;48.830;9.262;2023-03-03T15:18:29;98857.88;;;10.57;51.96
7760;BME280;3924;48.830;9.262;2023-03-03T15:21:12;98859.72;;;10.62;51.05
7760;BME280;3924;48.830;9.262;2023-03-03T15:23:58;98855.66;;;10.64;51.47
7760;BME280;3924;48.830;9.262;2023-03-03T15:27:21;98854.31;;;10.62;51.76
7760;BME280;3924;48.830;9.262;2023-03-03T15:37:48;98853.22;;;10.29;52.11
7760;BME280;3924;48.830;9.262;2023-03-03T15:45:44;98849.28;;;10.11;51.72
7760;BME280;3924;48.830;9.262;2023-03-03T15:48:40;98847.38;;;10.11;52.34
7760;BME280;3924;48.830;9.262;2023-03-03T15:56:56;98857.28;;;9.87;51.70
7760;BME280;3924;48.830;9.262;2023-03-03T16:02:09;98857.38;;;9.72;52.16
7760;BME280;3924;48.830;9.262;2023-03-03T16:04:52;98854.44;;;9.63;52.63
7760;BME280;3924;48.830;9.262;2023-03-03T16:18:33;98873.28;;;9.29;53.50
7760;BME280;3924;48.830;9.262;2023-03-03T16:21:15;98876.28;;;9.22;53.02
7760;BME280;3924;48.830;9.262;2023-03-03T16:23:47;98870.06;;;9.17;53.70
7760;BME280;3924;48.830;9.262;2023-03-03T16:26:31;98872.25;;;9.10;53.34
7760;BME280;3924;48.830;9.262;2023-03-03T16:32:10;98882.53;;;8.97;53.78
7760;BME280;3924;48.830;9.262;2023-03-03T16:34:55;98882.81;;;8.91;54.44
7760;BME280;3924;48.830;9.262;2023-03-03T16:37:50;98887.44;;;8.85;54.41
7760;BME280;3924;48.830;9.262;2023-03-03T16:40:26;98898.28;;;8.80;54.31
7760;BME280;3924;48.830;9.262;2023-03-03T16:43:15;98896.09;;;8.77;54.56
7760;BME280;3924;48.830;9.262;2023-03-03T16:45:45;98899.63;;;8.72;54.43
7760;BME280;3924;48.830;9.262;2023-03-03T16:48:18;98906.13;;;8.66;54.53
7760;BME280;3924;48.830;9.262;2023-03-03T16:50:54;98906.91;;;8.62;54.45
7760;BME280;3924;48.830;9.262;2023-03-03T16:53:38;98908.00;;;8.56;54.41
7760;BME280;3924;48.830;9.262;2023-03-03T16:56:20;98910.44;;;8.47;54.76
7760;BME280;3924;48.830;9.262;2023-03-03T16:59:15;98914.50;;;8.39;55.03
7760;BME280;3924;48.830;9.262;2023-03-03T17:01:58;98922.81;;;8.33;54.84
7760;BME280;3924;48.830;9.262;2023-03-03T17:06:58;98920.91;;;8.18;55.98
7760;BME280;3924;48.830;9.262;2023-03-03T17:18:08;98925.97;;;7.89;56.26
7760;BME280;3924;48.830;9.262;2023-03-03T17:28:41;98945.06;;;7.62;56.99
7760;BME280;3924;48.830;9.262;2023-03-03T17:33:52;98949.00;;;7.44;57.35
7760;BME280;3924;48.830;9.262;2023-03-03T17:42:55;98967.22;;;7.22;57.85
7760;BME280;3924;48.830;9.262;2023-03-03T17:45:24;98963.13;;;7.14;57.88
7760;BME280;3924;48.830;9.262;2023-03-03T17:59:34;98980.22;;;6.93;58.75
7760;BME280;3924;48.830;9.262;2023-03-03T18:05:28;98988.50;;;6.81;59.03
7760;BME280;3924;48.830;9.262;2023-03-03T18:11:06;98998.38;;;6.70;59.47
7760;BME280;3924;48.830;9.262;2023-03-03T18:20:47;98998.22;;;6.55;59.83
7760;BME280;3924;48.830;9.262;2023-03-03T18:23:27;99008.13;;;6.49;59.87
7760;BME280;3924;48.830;9.262;2023-03-03T18:25:57;99009.97;;;6.44;60.17
7760;BME280;3924;48.830;9.262;2023-03-03T18:31:02;99001.81;;;6.34;60.45
7760;BME280;3924;48.830;9.262;2023-03-03T18:33:42;99006.63;;;6.32;60.51
7760;BME280;3924;48.830;9.262;2023-03-03T18:38:52;99006.84;;;6.25;60.61
7760;BME280;3924;48.830;9.262;2023-03-03T18:41:26;99006.50;;;6.21;60.90
7760;BME280;3924;48.830;9.262;2023-03-03T18:43:55;99007.84;;;6.19;60.84